sensor_id;sensor_type;location;lat;lon;timestamp;temperature;humidity
25050;DHT22;13046;49.814;9.918;2023-11-22T00:00:19;4.70;99.90
25050;DHT22;13046;49.814;9.918;2023-11-22T00:02:46;4.70;99.90
25050;DHT22;13046;49.814;9.918;2023-11-22T00:05:14;4.80;99.90
25050;DHT22;13046;49.814;9.918;2023-11-22T00:07:39;4.70;99.90
25050;DHT22;13046;49.814;9.918;2023-11-22T00:10:06;4.70;99.90
25050;DHT22;13046;49.814;9.918;2023-11-22T00:12:33;4.70;99.90
25050;DHT22;13046;49.814;9.918;2023-11-22T00:15:05;4.70;99.90
25050;DHT22;13046;49.814;9.918;2023-11-22T00:17:32;4.70;99.90
25050;DHT22;13046;49.814;9.918;2023-11-22T00:19:59;4.60;99.90
25050;DHT22;13046;49.814;9.918;2023-11-22T00:22:27;4.40;99.90
25050;DHT22;13046;49.814;9.918;2023-11-22T00:24:53;4.30;99.90
25050;DHT22;13046;49.814;9.918;2023-11-22T00:27:19;4.10;99.90
25050;DHT22;13046;49.814;9.918;2023-11-22T00:29:45;4.00;99.90
25050;DHT22;13046;49.814;9.918;2023-11-22T00:32:12;3.90;99.90
25050;DHT22;13046;49.814;9.918;2023-11-22T00:34:37;3.90;99.90
25050;DHT22;13046;49.814;9.918;2023-11-22T00:37:03;3.90;99.90
25050;DHT22;13046;49.814;9.918;2023-11-22T00:39:29;4.00;99.90
25050;DHT22;13046;49.814;9.918;2023-11-22T00:41:54;4.00;99.90
25050;DHT22;13046;49.814;9.918;2023-11-22T00:44:21;4.00;99.90
25050;DHT22;13046;49.814;9.918;2023-11-22T00:46:48;4.00;99.90
25050;DHT22;13046;49.814;9.918;2023-11-22T00:49:15;4.00;99.90
25050;DHT22;13046;49.814;9.918;2023-11-22T00:51:40;3.90;99.90
25050;DHT22;13046;49.814;9.918;2023-11-22T00:54:06;3.90;99.90
25050;DHT22;13046;49.814;9.918;2023-11-22T00:56:32;4.00;99.90
25050;DHT22;13046;49.814;9.918;2023-11-22T00:58:57;4.00;99.90
25050;DHT22;13046;49.814;9.918;2023-11-22T01:01:25;4.10;99.90
25050;DHT22;13046;49.814;9.918;2023-11-22T01:03:51;4.10;99.90
25050;DHT22;13046;49.814;9.918;2023-11-22T01:06:17;4.10;99.90
25050;DHT22;13046;49.814;9.918;2023-11-22T01:08:45;4.10;99.90
25050;DHT22;13046;49.814;9.918;2023-11-22T01:11:13;4.10;99.90
25050;DHT22;13046;49.814;9.918;2023-11-22T01:13:39;4.20;99.90
25050;DHT22;13046;49.814;9.918;2023-11-22T01:16:11;4.20;99.90
25050;DHT22;13046;49.814;9.918;2023-11-22T01:18:38;4.20;99.90
25050;DHT22;13046;49.814;9.918;2023-11-22T01:21:05;4.20;99.90
25050;DHT22;13046;49.814;9.918;2023-11-22T01:23:31;4.30;99.90
25050;DHT22;13046;49.814;9.918;2023-11-22T01:26:00;4.30;99.90
25050;DHT22;13046;49.814;9.918;2023-11-22T01:28:26;4.40;99.90
25050;DHT22;13046;49.814;9.918;2023-11-22T01:30:53;4.40;99.90
25050;DHT22;13046;49.814;9.918;2023-11-22T01:33:21;4.40;99.90
25050;DHT22;13046;49.814;9.918;2023-11-22T01:35:46;4.40;99.90
25050;DHT22;13046;49.814;9.918;2023-11-22T01:38:12;4.40;99.90
25050;DHT22;13046;49.814;9.918;2023-11-22T01:40:44;4.40;99.90
25050;DHT22;13046;49.814;9.918;2023-11-22T01:43:20;4.40;99.90
25050;DHT22;13046;49.814;9.918;2023-11-22T01:45:47;4.50;99.90
25050;DHT22;13046;49.814;9.918;2023-11-22T01:48:13;4.50;99.90
25050;DHT22;13046;49.814;9.918;2023-11-22T01:50:43;4.40;99.90
25050;DHT22;13046;49.814;9.918;2023-11-22T01:53:11;4.40;99.90
25050;DHT22;13046;49.814;9.918;2023-11-22T01:55:38;4.40;99.90
25050;DHT22;13046;49.814;9.918;2023-11-22T01:58:04;4.40;99.90
25050;DHT22;13046;49.814;9.918;2023-11-22T02:08:01;4.50;99.90
25050;DHT22;13046;49.814;9.918;2023-11-22T02:10:27;4.40;99.90
25050;DHT22;13046;49.814;9.918;2023-11-22T02:12:53;4.50;99.90
25050;DHT22;13046;49.814;9.918;2023-11-22T02:15:19;4.50;99.90
25050;DHT22;13046;49.814;9.918;2023-11-22T02:17:44;4.50;99.90
25050;DHT22;13046;49.814;9.918;2023-11-22T02:20:10;4.50;99.90
25050;DHT22;13046;49.814;9.918;2023-11-22T02:22:47;4.60;99.90
25050;DHT22;13046;49.814;9.918;2023-11-22T02:25:13;4.60;99.90
25050;DHT22;13046;49.814;9.918;2023-11-22T02:27:40;4.60;99.90
25050;DHT22;13046;49.814;9.918;2023-11-22T02:32:35;4.50;99.90
25050;DHT22;13046;49.814;9.918;2023-11-22T02:35:00;4.40;99.90
25050;DHT22;13046;49.814;9.918;2023-11-22T02:37:26;4.30;99.90
25050;DHT22;13046;49.814;9.918;2023-11-22T02:40:18;4.20;99.90
25050;DHT22;13046;49.814;9.918;2023-11-22T02:42:54;4.10;99.90
25050;DHT22;13046;49.814;9.918;2023-11-22T02:45:28;4.00;99.90
25050;DHT22;13046;49.814;9.918;2023-11-22T02:47:53;4.00;99.90
25050;DHT22;13046;49.814;9.918;2023-11-22T02:50:20;4.00;99.90
25050;DHT22;13046;49.814;9.918;2023-11-22T02:52:46;3.90;99.90
25050;DHT22;13046;49.814;9.918;2023-11-22T02:55:11;3.90;99.90
25050;DHT22;13046;49.814;9.918;2023-11-22T02:57:38;3.90;99.90
25050;DHT22;13046;49.814;9.918;2023-11-22T03:00:06;3.80;99.90
25050;DHT22;13046;49.814;9.918;2023-11-22T03:02:34;3.70;99.90
25050;DHT22;13046;49.814;9.918;2023-11-22T03:04:59;3.60;99.90
25050;DHT22;13046;49.814;9.918;2023-11-22T03:07:26;3.50;99.90
25050;DHT22;13046;49.814;9.918;2023-11-22T03:09:52;3.50;99.90
25050;DHT22;13046;49.814;9.918;2023-11-22T03:12:18;3.40;99.90
25050;DHT22;13046;49.814;9.918;2023-11-22T03:14:46;3.40;99.90
25050;DHT22;13046;49.814;9.918;2023-11-22T03:17:11;3.20;99.90
25050;DHT22;13046;49.814;9.918;2023-11-22T03:19:39;3.20;99.90
25050;DHT22;13046;49.814;9.918;2023-11-22T03:22:05;3.10;99.90
25050;DHT22;13046;49.814;9.918;2023-11-22T03:24:33;3.00;99.90
25050;DHT22;13046;49.814;9.918;2023-11-22T03:27:01;3.00;99.90
25050;DHT22;13046;49.814;9.918;2023-11-22T03:29:26;2.90;99.90
25050;DHT22;13046;49.814;9.918;2023-11-22T03:31:53;2.90;99.90
25050;DHT22;13046;49.814;9.918;2023-11-22T03:34:19;2.70;99.90
25050;DHT22;13046;49.814;9.918;2023-11-22T03:36:45;2.60;99.90
25050;DHT22;13046;49.814;9.918;2023-11-22T03:39:11;2.50;99.90
25050;DHT22;13046;49.814;9.918;2023-11-22T03:41:37;2.40;99.90
25050;DHT22;13046;49.814;9.918;2023-11-22T03:44:04;2.40;99.90
25050;DHT22;13046;49.814;9.918;2023-11-22T03:46:33;2.20;99.90
25050;DHT22;13046;49.814;9.918;2023-11-22T03:48:59;2.20;99.90
25050;DHT22;13046;49.814;9.918;2023-11-22T03:51:25;2.20;99.90
25050;DHT22;13046;49.814;9.918;2023-11-22T03:53:51;2.10;99.90
25050;DHT22;13046;49.814;9.918;2023-11-22T03:56:16;2.00;99.90
25050;DHT22;13046;49.814;9.918;2023-11-22T03:58:42;1.90;99.90
25050;DHT22;13046;49.814;9.918;2023-11-22T04:01:07;1.90;99.90
25050;DHT22;13046;49.814;9.918;2023-11-22T04:03:35;1.80;99.90
25050;DHT22;13046;49.814;9.918;2023-11-22T04:06:00;1.80;99.90
25050;DHT22;13046;49.814;9.918;2023-11-22T04:08:26;1.70;99.90
25050;DHT22;13046;49.814;9.918;2023-11-22T04:10:52;1.70;99.90
25050;DHT22;13046;49.814;9.918;2023-11-22T04:13:17;1.70;99.90
25050;DHT22;13046;49.814;9.918;2023-11-22T04:15:43;1.70;99.90
25050;DHT22;13046;49.814;9.918;2023-11-22T04:18:09;1.70;99.90
25050;DHT22;13046;49.814;9.918;2023-11-22T04:20:34;1.60;99.90
25050;DHT22;13046;49.814;9.918;2023-11-22T04:25:26;1.60;99.90
25050;DHT22;13046;49.814;9.918;2023-11-22T04:27:52;1.50;99.90
25050;DHT22;13046;49.814;9.918;2023-11-22T04:30:18;1.50;99.90
25050;DHT22;13046;49.814;9.918;2023-11-22T04:32:44;1.50;99.90
25050;DHT22;13046;49.814;9.918;2023-11-22T04:35:10;1.40;99.90
25050;DHT22;13046;49.814;9.918;2023-11-22T04:37:36;1.40;99.90
25050;DHT22;13046;49.814;9.918;2023-11-22T04:40:03;1.40;99.90
25050;DHT22;13046;49.814;9.918;2023-11-22T04:42:34;1.40;99.90
25050;DHT22;13046;49.814;9.918;2023-11-22T04:45:00;1.40;99.90
25050;DHT22;13046;49.814;9.918;2023-11-22T04:47:25;1.40;99.90
25050;DHT22;13046;49.814;9.918;2023-11-22T04:49:51;1.40;99.90
25050;DHT22;13046;49.814;9.918;2023-11-22T04:52:17;1.40;99.90
25050;DHT22;13046;49.814;9.918;2023-11-22T04:54:42;1.30;99.90
25050;DHT22;13046;49.814;9.918;2023-11-22T04:57:08;1.30;99.90
25050;DHT22;13046;49.814;9.918;2023-11-22T05:04:26;1.20;99.90
25050;DHT22;13046;49.814;9.918;2023-11-22T05:06:53;1.30;99.90
25050;DHT22;13046;49.814;9.918;2023-11-22T05:16:38;1.30;99.90
25050;DHT22;13046;49.814;9.918;2023-11-22T05:19:04;1.30;99.90
25050;DHT22;13046;49.814;9.918;2023-11-22T05:21:31;1.30;99.90
25050;DHT22;13046;49.814;9.918;2023-11-22T05:23:58;1.30;99.90
25050;DHT22;13046;49.814;9.918;2023-11-22T05:28:53;1.30;99.90
25050;DHT22;13046;49.814;9.918;2023-11-22T05:36:12;1.40;99.90
25050;DHT22;13046;49.814;9.918;2023-11-22T05:38:38;1.40;99.90
25050;DHT22;13046;49.814;9.918;2023-11-22T05:55:51;1.40;99.90
25050;DHT22;13046;49.814;9.918;2023-11-22T06:03:11;1.40;99.90
25050;DHT22;13046;49.814;9.918;2023-11-22T06:05:37;1.40;99.90
25050;DHT22;13046;49.814;9.918;2023-11-22T06:22:42;1.50;99.90
25050;DHT22;13046;49.814;9.918;2023-11-22T06:25:14;1.50;99.90
25050;DHT22;13046;49.814;9.918;2023-11-22T06:27:41;1.50;99.90
25050;DHT22;13046;49.814;9.918;2023-11-22T06:30:07;1.50;99.90
25050;DHT22;13046;49.814;9.918;2023-11-22T06:32:34;1.50;99.90
25050;DHT22;13046;49.814;9.918;2023-11-22T06:35:00;1.50;99.90
25050;DHT22;13046;49.814;9.918;2023-11-22T06:37:26;1.50;99.90
25050;DHT22;13046;49.814;9.918;2023-11-22T06:39:52;1.50;99.90
25050;DHT22;13046;49.814;9.918;2023-11-22T06:42:18;1.50;99.90
25050;DHT22;13046;49.814;9.918;2023-11-22T06:44:47;1.40;99.90
25050;DHT22;13046;49.814;9.918;2023-11-22T06:47:13;1.50;99.90
25050;DHT22;13046;49.814;9.918;2023-11-22T06:49:39;1.50;99.90
25050;DHT22;13046;49.814;9.918;2023-11-22T06:52:05;1.40;99.90
25050;DHT22;13046;49.814;9.918;2023-11-22T06:59:23;1.50;99.90
25050;DHT22;13046;49.814;9.918;2023-11-22T07:01:49;1.50;99.90
25050;DHT22;13046;49.814;9.918;2023-11-22T07:04:14;1.50;99.90
25050;DHT22;13046;49.814;9.918;2023-11-22T07:06:40;1.50;99.90
25050;DHT22;13046;49.814;9.918;2023-11-22T07:09:08;1.50;99.90
25050;DHT22;13046;49.814;9.918;2023-11-22T07:11:37;1.50;99.90
25050;DHT22;13046;49.814;9.918;2023-11-22T07:14:03;1.60;99.90
25050;DHT22;13046;49.814;9.918;2023-11-22T07:16:32;1.50;99.90
25050;DHT22;13046;49.814;9.918;2023-11-22T07:18:59;1.60;99.90
25050;DHT22;13046;49.814;9.918;2023-11-22T07:21:31;1.60;99.90
25050;DHT22;13046;49.814;9.918;2023-11-22T07:23:56;1.60;99.90
25050;DHT22;13046;49.814;9.918;2023-11-22T10:33:45;1.60;99.90
